createdAt,value
2022-11-25T00:01:09.789Z,4.40
2022-11-25T00:03:36.701Z,4.36
2022-11-25T00:06:10.231Z,4.39
2022-11-25T00:08:37.428Z,4.50
2022-11-25T00:11:05.149Z,4.51
2022-11-25T00:13:32.307Z,4.45
2022-11-25T00:16:11.663Z,4.34
2022-11-25T00:18:38.802Z,4.37
2022-11-25T00:21:08.266Z,4.37
2022-11-25T00:23:35.879Z,4.22
2022-11-25T00:26:16.535Z,4.20
2022-11-25T00:28:45.953Z,4.31
2022-11-25T00:31:27.222Z,4.37
2022-11-25T00:33:54.001Z,4.42
2022-11-25T00:36:21.613Z,4.47
2022-11-25T00:38:52.521Z,4.46
2022-11-25T00:41:37.299Z,4.37
2022-11-25T00:44:22.664Z,4.37
2022-11-25T00:46:49.175Z,4.38
2022-11-25T00:49:15.682Z,4.39
2022-11-25T00:51:42.105Z,4.44
2022-11-25T00:54:08.523Z,4.44
2022-11-25T00:56:35.000Z,4.48
2022-11-25T00:59:01.464Z,4.55
2022-11-25T01:01:27.991Z,4.66
2022-11-25T01:03:54.525Z,4.79
2022-11-25T01:06:22.051Z,4.90
2022-11-25T01:08:48.906Z,4.87
2022-11-25T01:11:18.381Z,4.73
2022-11-25T01:13:45.160Z,4.67
2022-11-25T01:16:17.194Z,4.66
2022-11-25T01:18:44.049Z,4.65
2022-11-25T01:21:13.210Z,4.68
2022-11-25T01:23:40.701Z,4.75
2022-11-25T01:26:11.304Z,4.77
2022-11-25T01:28:37.739Z,4.76
2022-11-25T01:31:12.904Z,4.79
2022-11-25T01:33:43.496Z,4.91
2022-11-25T01:36:19.378Z,5.01
2022-11-25T01:38:49.681Z,4.88
2022-11-25T01:41:16.176Z,4.77
2022-11-25T01:43:42.656Z,4.73
2022-11-25T01:46:10.696Z,4.77
2022-11-25T01:48:49.321Z,4.86
2022-11-25T01:51:43.926Z,4.86
2022-11-25T01:54:14.031Z,4.87
2022-11-25T01:56:47.008Z,4.78
2022-11-25T01:59:13.989Z,4.68
2022-11-25T02:01:40.510Z,4.69
2022-11-25T02:04:10.977Z,4.75
2022-11-25T02:07:00.831Z,4.73
2022-11-25T02:09:27.733Z,4.74
2022-11-25T02:11:54.602Z,4.78
2022-11-25T02:14:23.085Z,4.72
2022-11-25T02:16:49.659Z,4.73
2022-11-25T02:19:43.073Z,4.67
2022-11-25T02:22:15.481Z,4.55
2022-11-25T02:24:46.139Z,4.51
2022-11-25T02:27:12.995Z,4.55
2022-11-25T02:29:40.201Z,4.56
2022-11-25T02:32:06.784Z,4.63
2022-11-25T02:34:33.402Z,4.63
2022-11-25T02:37:00.660Z,4.57
2022-11-25T02:39:28.078Z,4.57
2022-11-25T02:41:58.619Z,4.61
2022-11-25T02:44:25.039Z,4.68
2022-11-25T02:46:51.469Z,4.67
2022-11-25T02:49:17.931Z,4.72
2022-11-25T02:51:45.317Z,4.79
2022-11-25T02:54:13.546Z,4.80
2022-11-25T02:56:40.542Z,4.75
2022-11-25T02:59:07.853Z,4.72
2022-11-25T03:01:35.361Z,4.77
2022-11-25T03:04:02.286Z,4.77
2022-11-25T03:06:29.768Z,4.72
2022-11-25T03:08:57.005Z,4.68
2022-11-25T03:11:46.724Z,4.68
2022-11-25T03:14:13.353Z,4.72
2022-11-25T03:16:39.893Z,4.83
2022-11-25T03:19:06.731Z,4.76
2022-11-25T03:21:33.179Z,4.84
2022-11-25T03:24:00.079Z,4.77
2022-11-25T03:26:26.703Z,4.73
2022-11-25T03:28:53.230Z,4.81
2022-11-25T03:31:19.787Z,4.78
2022-11-25T03:33:46.331Z,4.81
2022-11-25T03:36:12.765Z,4.84
2022-11-25T03:38:39.178Z,4.89
2022-11-25T03:41:06.800Z,4.91
2022-11-25T03:43:33.246Z,4.86
2022-11-25T03:45:59.701Z,4.86
2022-11-25T03:48:26.174Z,4.88
2022-11-25T03:50:52.644Z,4.89
2022-11-25T03:53:19.147Z,4.87
2022-11-25T03:55:47.979Z,4.82
2022-11-25T03:58:14.435Z,4.79
2022-11-25T04:00:40.880Z,4.82
2022-11-25T04:03:07.318Z,4.86
2022-11-25T04:05:33.763Z,4.87
2022-11-25T04:08:00.238Z,4.87
2022-11-25T04:10:26.784Z,4.88
2022-11-25T04:12:54.098Z,4.82
2022-11-25T04:15:20.561Z,4.79
2022-11-25T04:17:47.113Z,4.85
2022-11-25T04:20:14.860Z,4.91
2022-11-25T04:22:41.657Z,4.93
2022-11-25T04:25:09.265Z,4.97
2022-11-25T04:27:35.742Z,5.06
2022-11-25T04:30:02.171Z,5.09
2022-11-25T04:32:28.675Z,5.12
2022-11-25T04:34:55.173Z,5.07
2022-11-25T04:37:21.766Z,5.07
2022-11-25T04:39:48.429Z,5.05
2022-11-25T04:42:32.667Z,5.01
2022-11-25T04:45:21.420Z,4.99
2022-11-25T04:47:46.537Z,5.00
2022-11-25T04:50:16.260Z,5.03
2022-11-25T04:52:42.657Z,4.98
2022-11-25T04:55:09.688Z,4.97
2022-11-25T04:57:36.337Z,5.00
2022-11-25T05:00:04.012Z,4.99
2022-11-25T05:02:30.536Z,4.93
2022-11-25T05:04:57.600Z,4.86
2022-11-25T05:07:26.010Z,4.89
2022-11-25T05:09:52.549Z,4.84
2022-11-25T05:12:23.058Z,4.84
2022-11-25T05:14:49.944Z,4.79
2022-11-25T05:17:19.672Z,4.70
2022-11-25T05:19:46.141Z,4.67
2022-11-25T05:22:24.653Z,4.68
2022-11-25T05:24:51.589Z,4.59
2022-11-25T05:27:18.400Z,4.56
2022-11-25T05:29:44.996Z,4.51
2022-11-25T05:32:12.167Z,4.45
2022-11-25T05:34:39.042Z,4.39
2022-11-25T05:37:06.347Z,4.35
2022-11-25T05:39:32.947Z,4.44
2022-11-25T05:41:59.489Z,4.56
2022-11-25T05:44:26.287Z,4.56
2022-11-25T05:46:53.139Z,4.43
2022-11-25T05:49:19.940Z,4.30
2022-11-25T05:51:46.719Z,4.27
2022-11-25T05:54:13.792Z,4.19
2022-11-25T05:56:40.736Z,4.23
2022-11-25T05:59:07.434Z,4.12
2022-11-25T06:01:34.238Z,4.14
2022-11-25T06:04:01.332Z,4.19
2022-11-25T06:06:28.075Z,4.26
2022-11-25T06:08:54.570Z,4.34
2022-11-25T06:11:21.213Z,4.32
2022-11-25T06:13:47.656Z,4.30
2022-11-25T06:16:20.168Z,4.31
2022-11-25T06:18:46.732Z,4.26
2022-11-25T06:21:13.628Z,4.24
2022-11-25T06:23:40.672Z,4.27
2022-11-25T06:26:15.718Z,4.33
2022-11-25T06:28:42.444Z,4.34
2022-11-25T06:31:15.848Z,4.35
2022-11-25T06:33:42.406Z,4.35
2022-11-25T06:36:16.890Z,4.42
2022-11-25T06:38:52.335Z,4.43
2022-11-25T06:41:19.882Z,4.47
2022-11-25T06:43:46.404Z,4.50
2022-11-25T06:46:19.680Z,4.52
2022-11-25T06:48:49.575Z,4.56
2022-11-25T06:51:16.832Z,4.47
2022-11-25T06:53:44.047Z,4.39
2022-11-25T06:56:16.244Z,4.28
2022-11-25T06:58:43.706Z,4.36
2022-11-25T07:01:22.955Z,4.43
2022-11-25T07:03:52.173Z,4.42
2022-11-25T07:06:20.374Z,4.31
2022-11-25T07:08:47.874Z,4.22
2022-11-25T07:11:20.619Z,4.24
2022-11-25T07:13:48.070Z,4.28
2022-11-25T07:16:15.240Z,4.31
2022-11-25T07:18:42.669Z,4.26
2022-11-25T07:21:14.899Z,4.24
2022-11-25T07:23:42.993Z,4.35
2022-11-25T07:26:12.323Z,4.50
2022-11-25T07:28:39.566Z,4.64
2022-11-25T07:31:31.146Z,4.67
2022-11-25T07:34:04.480Z,4.82
2022-11-25T07:36:33.133Z,4.98
2022-11-25T07:39:02.701Z,5.13
2022-11-25T07:41:29.349Z,5.23
2022-11-25T07:43:58.417Z,5.35
2022-11-25T07:46:34.040Z,5.45
2022-11-25T07:49:03.327Z,5.54
2022-11-25T07:51:38.209Z,5.62
2022-11-25T07:54:07.663Z,5.69
2022-11-25T07:56:36.497Z,5.72
2022-11-25T07:59:03.092Z,5.83
2022-11-25T08:01:29.927Z,5.97
2022-11-25T08:03:56.822Z,6.14
2022-11-25T08:06:26.600Z,6.27
2022-11-25T08:08:55.446Z,6.44
2022-11-25T08:11:28.013Z,6.60
2022-11-25T08:13:55.271Z,6.71
2022-11-25T08:16:24.073Z,6.79
2022-11-25T08:18:50.800Z,6.83
2022-11-25T08:21:18.292Z,6.95
2022-11-25T08:23:47.486Z,7.03
2022-11-25T08:26:17.201Z,7.11
2022-11-25T08:28:43.946Z,7.17
2022-11-25T08:31:14.773Z,7.23
2022-11-25T08:33:41.879Z,7.28
2022-11-25T08:36:08.822Z,7.31
2022-11-25T08:38:35.969Z,7.35
2022-11-25T08:41:02.894Z,7.38
2022-11-25T08:43:29.805Z,7.48
2022-11-25T08:45:57.094Z,7.65
2022-11-25T08:48:24.139Z,7.66
2022-11-25T08:50:53.796Z,7.72
2022-11-25T08:53:21.865Z,7.85
2022-11-25T08:55:49.454Z,7.89
2022-11-25T08:58:15.982Z,7.90
2022-11-25T09:00:43.965Z,7.91
2022-11-25T09:03:10.979Z,7.93
2022-11-25T09:05:42.815Z,7.95
2022-11-25T09:08:10.732Z,8.00
2022-11-25T09:10:39.147Z,8.00
2022-11-25T09:13:06.065Z,8.01
2022-11-25T09:15:32.970Z,8.06
2022-11-25T09:18:01.706Z,8.06
2022-11-25T09:20:28.540Z,8.03
2022-11-25T09:22:55.488Z,8.06
2022-11-25T09:25:22.888Z,8.10
2022-11-25T09:27:49.370Z,8.13
2022-11-25T09:30:16.306Z,8.15
2022-11-25T09:32:43.357Z,8.18
2022-11-25T09:35:10.606Z,8.23
2022-11-25T09:37:37.202Z,8.24
2022-11-25T09:40:04.689Z,8.25
2022-11-25T09:43:07.455Z,8.29
2022-11-25T09:45:57.277Z,8.32
2022-11-25T09:48:29.615Z,8.38
2022-11-25T09:51:14.197Z,8.46
2022-11-25T09:53:43.628Z,8.58
2022-11-25T09:56:34.749Z,8.71
2022-11-25T09:59:14.474Z,8.95
2022-11-25T10:02:12.510Z,8.93
2022-11-25T10:04:54.665Z,8.93
2022-11-25T10:07:33.109Z,8.84
2022-11-25T10:10:03.461Z,8.88
2022-11-25T10:12:36.126Z,8.92
2022-11-25T10:15:12.097Z,9.02
2022-11-25T10:17:45.526Z,9.10
2022-11-25T10:20:19.620Z,9.20
2022-11-25T10:22:51.927Z,9.24
2022-11-25T10:25:25.189Z,9.28
2022-11-25T10:28:04.666Z,9.26
2022-11-25T10:30:40.704Z,9.23
2022-11-25T10:33:20.891Z,9.32
2022-11-25T10:36:08.116Z,9.33
2022-11-25T10:38:59.885Z,9.39
2022-11-25T10:41:30.236Z,9.49
2022-11-25T10:43:57.126Z,9.59
2022-11-25T10:47:14.246Z,9.68
2022-11-25T10:50:08.822Z,9.88
2022-11-25T10:52:44.313Z,9.96
2022-11-25T10:55:14.811Z,9.92
2022-11-25T10:57:42.197Z,9.99
2022-11-25T11:00:25.871Z,10.13
2022-11-25T11:02:53.665Z,10.07
2022-11-25T11:05:29.784Z,9.95
2022-11-25T11:08:35.309Z,9.95
2022-11-25T11:11:18.726Z,9.92
2022-11-25T11:13:46.220Z,9.84
2022-11-25T11:16:45.444Z,9.88
2022-11-25T11:19:29.881Z,9.87
2022-11-25T11:22:15.582Z,9.89
2022-11-25T11:24:42.548Z,9.86
2022-11-25T11:27:21.383Z,9.93
2022-11-25T11:29:47.864Z,9.97
2022-11-25T11:32:25.243Z,10.05
2022-11-25T11:35:14.162Z,10.03
2022-11-25T11:37:45.901Z,10.07
2022-11-25T11:40:35.477Z,10.11
2022-11-25T11:43:49.461Z,10.12
2022-11-25T11:46:18.703Z,10.08
2022-11-25T11:48:53.481Z,10.08
2022-11-25T11:51:31.738Z,10.21
2022-11-25T11:54:30.522Z,10.21
2022-11-25T11:57:02.225Z,10.20
2022-11-25T11:59:37.752Z,10.25
2022-11-25T12:02:31.048Z,10.27
2022-11-25T12:05:06.375Z,10.34
2022-11-25T12:07:38.544Z,10.35
2022-11-25T12:10:13.694Z,10.35
2022-11-25T12:12:48.936Z,10.32
2022-11-25T12:15:33.446Z,10.27
2022-11-25T12:18:09.923Z,10.27
2022-11-25T12:20:40.142Z,10.33
2022-11-25T12:23:18.588Z,10.35
2022-11-25T12:25:47.694Z,10.32
2022-11-25T12:28:29.946Z,10.29
2022-11-25T12:31:31.828Z,10.31
2022-11-25T12:34:08.070Z,10.29
2022-11-25T12:36:40.451Z,10.34
2022-11-25T12:39:23.656Z,10.27
2022-11-25T12:42:01.130Z,10.18
2022-11-25T12:44:48.360Z,10.18
2022-11-25T12:47:14.845Z,10.22
2022-11-25T12:49:48.197Z,10.24
2022-11-25T12:52:22.075Z,10.29
2022-11-25T12:55:07.293Z,10.31
2022-11-25T12:58:08.642Z,10.41
2022-11-25T13:01:03.434Z,10.42
2022-11-25T13:04:14.697Z,10.40
2022-11-25T13:06:59.406Z,10.37
2022-11-25T13:09:47.836Z,10.40
2022-11-25T13:12:48.660Z,10.37
2022-11-25T13:15:25.137Z,10.31
2022-11-25T13:17:57.635Z,10.31
2022-11-25T13:20:26.998Z,10.32
2022-11-25T13:23:07.626Z,10.27
2022-11-25T13:25:35.424Z,10.26
2022-11-25T13:28:04.926Z,10.29
2022-11-25T13:30:34.129Z,10.30
2022-11-25T13:33:09.665Z,10.24
2022-11-25T13:35:39.503Z,10.24
2022-11-25T13:38:29.038Z,10.27
2022-11-25T13:41:22.087Z,10.32
2022-11-25T13:44:03.570Z,10.33
2022-11-25T13:46:47.535Z,10.34
2022-11-25T13:49:51.812Z,10.34
2022-11-25T13:52:18.170Z,10.36
2022-11-25T13:54:53.727Z,10.36
2022-11-25T13:57:38.106Z,10.29
2022-11-25T14:00:33.197Z,10.27
2022-11-25T14:03:18.470Z,10.24
2022-11-25T14:06:28.190Z,10.25
2022-11-25T14:09:03.628Z,10.22
2022-11-25T14:11:47.107Z,10.22
2022-11-25T14:14:32.361Z,10.18
2022-11-25T14:17:31.172Z,10.11
2022-11-25T14:20:10.676Z,10.05
2022-11-25T14:23:20.960Z,10.08
2022-11-25T14:25:57.649Z,10.07
2022-11-25T14:28:41.967Z,10.01
2022-11-25T14:31:16.287Z,10.00
2022-11-25T14:33:56.891Z,10.01
2022-11-25T14:36:41.789Z,9.99
2022-11-25T14:39:46.801Z,9.95
2022-11-25T14:42:21.179Z,9.90
2022-11-25T14:44:50.865Z,9.88
2022-11-25T14:47:25.265Z,9.91
2022-11-25T14:52:47.082Z,9.84
2022-11-25T14:55:24.693Z,9.82
2022-11-25T14:57:52.176Z,9.79
2022-11-25T15:00:18.908Z,9.73
2022-11-25T15:02:53.813Z,9.75
2022-11-25T15:05:23.071Z,9.70
2022-11-25T15:08:04.231Z,9.63
2022-11-25T15:10:51.508Z,9.56
2022-11-25T15:13:44.799Z,9.53
2022-11-25T15:16:15.743Z,9.47
2022-11-25T15:18:55.992Z,9.46
2022-11-25T15:21:29.123Z,9.42
2022-11-25T15:23:56.093Z,9.34
2022-11-25T15:26:24.844Z,9.29
2022-11-25T15:28:58.964Z,9.24
2022-11-25T15:31:34.350Z,9.20
2022-11-25T15:34:04.683Z,9.14
2022-11-25T15:36:31.523Z,9.11
2022-11-25T15:39:18.949Z,9.07
2022-11-25T15:41:48.410Z,9.04
2022-11-25T15:44:28.658Z,9.00
2022-11-25T15:47:02.698Z,8.90
2022-11-25T15:49:30.047Z,8.79
2022-11-25T15:52:06.989Z,8.69
2022-11-25T15:54:40.255Z,8.67
2022-11-25T15:57:15.700Z,8.59
2022-11-25T16:00:23.078Z,8.56
2022-11-25T16:02:52.636Z,8.47
2022-11-25T16:05:35.139Z,8.36
2022-11-25T16:08:18.049Z,8.19
2022-11-25T16:10:44.424Z,8.16
2022-11-25T16:13:23.358Z,8.23
2022-11-25T16:15:58.653Z,8.20
2022-11-25T16:18:51.542Z,8.13
2022-11-25T16:21:22.244Z,8.08
2022-11-25T16:23:52.500Z,8.05
2022-11-25T16:26:27.756Z,8.03
2022-11-25T16:28:56.614Z,8.07
2022-11-25T16:31:24.128Z,8.03
2022-11-25T16:34:01.568Z,8.02
2022-11-25T16:36:27.981Z,7.99
2022-11-25T16:38:54.508Z,7.93
2022-11-25T16:41:24.546Z,7.91
2022-11-25T16:43:51.688Z,7.85
2022-11-25T16:46:19.879Z,7.82
2022-11-25T16:48:47.243Z,7.75
2022-11-25T16:51:19.615Z,7.63
2022-11-25T16:53:47.081Z,7.66
2022-11-25T16:56:34.967Z,7.66
2022-11-25T16:59:02.880Z,7.65
2022-11-25T17:01:30.876Z,7.65
2022-11-25T17:03:57.648Z,7.63
2022-11-25T17:06:25.934Z,7.59
2022-11-25T17:08:52.798Z,7.58
2022-11-25T17:11:32.377Z,7.53
2022-11-25T17:14:02.737Z,7.48
2022-11-25T17:16:30.112Z,7.48
2022-11-25T17:18:58.522Z,7.48
2022-11-25T17:21:27.839Z,7.41
2022-11-25T17:23:59.599Z,7.36
2022-11-25T17:26:37.586Z,7.22
2022-11-25T17:29:12.137Z,7.16
2022-11-25T17:31:38.955Z,7.10
2022-11-25T17:34:05.970Z,7.03
2022-11-25T17:36:32.370Z,7.01
2022-11-25T17:38:58.849Z,7.02
2022-11-25T17:41:36.737Z,6.97
2022-11-25T17:44:06.144Z,7.03
2022-11-25T17:46:32.624Z,6.98
2022-11-25T17:49:00.360Z,6.86
2022-11-25T17:51:26.776Z,6.73
2022-11-25T17:53:53.338Z,6.64
2022-11-25T17:56:30.268Z,6.61
2022-11-25T17:59:02.275Z,6.60
2022-11-25T18:01:28.800Z,6.60
2022-11-25T18:03:56.020Z,6.64
2022-11-25T18:06:23.287Z,6.64
2022-11-25T18:08:49.794Z,6.58
2022-11-25T18:11:19.493Z,6.58
2022-11-25T18:13:47.533Z,6.62
2022-11-25T18:16:18.043Z,6.54
2022-11-25T18:18:44.505Z,6.50
2022-11-25T18:21:11.840Z,6.52
2022-11-25T18:23:38.300Z,6.44
2022-11-25T18:26:05.071Z,6.41
2022-11-25T18:28:32.448Z,6.45
2022-11-25T18:31:03.150Z,6.32
2022-11-25T18:33:30.067Z,6.22
2022-11-25T18:35:56.508Z,6.26
2022-11-25T18:38:23.218Z,6.35
2022-11-25T18:40:53.520Z,6.34
2022-11-25T18:43:24.601Z,6.25
2022-11-25T18:45:52.518Z,6.24
2022-11-25T18:48:24.030Z,6.33
2022-11-25T18:50:52.248Z,6.37
2022-11-25T18:53:19.007Z,6.35
2022-11-25T18:55:46.813Z,6.34
2022-11-25T18:58:19.216Z,6.23
2022-11-25T19:00:48.578Z,6.16
2022-11-25T19:03:24.308Z,6.14
2022-11-25T19:05:52.034Z,6.19
2022-11-25T19:08:18.687Z,6.18
2022-11-25T19:10:47.085Z,6.18
2022-11-25T19:13:32.931Z,6.14
2022-11-25T19:16:08.010Z,6.11
2022-11-25T19:18:35.256Z,6.07
2022-11-25T19:21:01.720Z,6.05
2022-11-25T19:23:28.818Z,5.98
2022-11-25T19:26:00.963Z,6.01
2022-11-25T19:28:29.312Z,6.09
2022-11-25T19:31:00.290Z,6.15
2022-11-25T19:33:30.674Z,6.15
2022-11-25T19:35:58.378Z,6.14
2022-11-25T19:38:26.016Z,6.02
2022-11-25T19:40:53.642Z,5.89
2022-11-25T19:43:20.467Z,5.84
2022-11-25T19:45:47.052Z,5.85
2022-11-25T19:48:19.525Z,5.92
2022-11-25T19:50:48.560Z,5.84
2022-11-25T19:53:21.097Z,5.65
2022-11-25T19:55:48.634Z,5.52
2022-11-25T19:58:15.654Z,5.60
2022-11-25T20:00:43.987Z,5.63
2022-11-25T20:03:23.500Z,5.70
2022-11-25T20:05:53.182Z,5.63
2022-11-25T20:08:26.376Z,5.50
2022-11-25T20:10:53.521Z,5.40
2022-11-25T20:13:20.767Z,5.32
2022-11-25T20:15:47.428Z,5.23
2022-11-25T20:18:20.399Z,5.23
2022-11-25T20:20:49.967Z,5.18
2022-11-25T20:23:43.700Z,4.96
2022-11-25T20:26:24.565Z,4.76
2022-11-25T20:28:51.002Z,4.80
2022-11-25T20:31:17.530Z,4.84
2022-11-25T20:33:44.010Z,4.72
2022-11-25T20:36:15.500Z,4.63
2022-11-25T20:38:44.319Z,4.57
2022-11-25T20:41:11.171Z,4.60
2022-11-25T20:43:41.393Z,4.64
2022-11-25T20:46:24.117Z,4.74
2022-11-25T20:48:56.607Z,4.77
2022-11-25T20:51:24.462Z,4.77
2022-11-25T20:54:01.255Z,4.86
2022-11-25T20:56:28.456Z,4.92
2022-11-25T20:58:55.532Z,5.01
2022-11-25T21:01:22.382Z,5.01
2022-11-25T21:03:50.301Z,5.00
2022-11-25T21:06:31.171Z,5.07
2022-11-25T21:09:01.167Z,5.11
2022-11-25T21:11:28.182Z,5.22
2022-11-25T21:13:54.691Z,5.30
2022-11-25T21:16:21.220Z,5.32
2022-11-25T21:18:47.740Z,5.31
2022-11-25T21:21:25.287Z,5.29
2022-11-25T21:23:52.061Z,5.18
2022-11-25T21:26:20.971Z,5.20
2022-11-25T21:28:49.768Z,5.19
2022-11-25T21:31:19.121Z,5.18
2022-11-25T21:33:46.771Z,5.13
2022-11-25T21:36:25.803Z,5.03
2022-11-25T21:39:01.650Z,5.05
2022-11-25T21:41:28.115Z,5.14
2022-11-25T21:43:54.583Z,5.15
2022-11-25T21:46:26.504Z,5.13
2022-11-25T21:48:53.149Z,5.10
2022-11-25T21:51:24.007Z,5.15
2022-11-25T21:53:51.514Z,5.19
2022-11-25T21:56:30.909Z,5.26
2022-11-25T21:58:59.678Z,5.26
2022-11-25T22:01:26.296Z,5.23
2022-11-25T22:03:52.829Z,5.29
2022-11-25T22:06:24.899Z,5.35
2022-11-25T22:08:51.528Z,5.43
2022-11-25T22:11:21.129Z,5.47
2022-11-25T22:13:48.576Z,5.44
2022-11-25T22:16:17.597Z,5.37
2022-11-25T22:18:45.015Z,5.30
2022-11-25T22:21:13.770Z,5.27
2022-11-25T22:23:41.441Z,5.29
2022-11-25T22:26:16.240Z,5.17
2022-11-25T22:28:45.058Z,5.10
2022-11-25T22:31:12.673Z,5.08
2022-11-25T22:33:39.182Z,5.08
2022-11-25T22:36:06.001Z,5.00
2022-11-25T22:38:32.527Z,4.97
2022-11-25T22:41:03.764Z,4.91
2022-11-25T22:43:36.599Z,4.84
2022-11-25T22:46:04.691Z,4.80
2022-11-25T22:48:35.191Z,4.90
2022-11-25T22:51:02.373Z,5.03
2022-11-25T22:53:29.395Z,5.07
2022-11-25T22:55:58.084Z,5.07
2022-11-25T22:58:28.157Z,5.05
2022-11-25T23:00:56.125Z,5.09
2022-11-25T23:03:26.035Z,5.17
2022-11-25T23:05:54.113Z,5.21
2022-11-25T23:08:23.212Z,5.20
2022-11-25T23:10:51.499Z,5.17
2022-11-25T23:13:20.493Z,5.10
2022-11-25T23:16:01.761Z,5.10
2022-11-25T23:18:38.973Z,5.07
2022-11-25T23:21:07.254Z,5.07
2022-11-25T23:23:33.816Z,5.08
2022-11-25T23:26:00.273Z,5.10
2022-11-25T23:28:26.803Z,5.19
2022-11-25T23:30:58.255Z,5.30
2022-11-25T23:33:51.424Z,5.37
2022-11-25T23:36:21.147Z,5.37
2022-11-25T23:38:52.692Z,5.32
2022-11-25T23:41:20.386Z,5.26
2022-11-25T23:43:46.793Z,5.28
2022-11-25T23:46:15.048Z,5.28
2022-11-25T23:48:43.421Z,5.20
2022-11-25T23:51:10.415Z,5.22
2022-11-25T23:53:39.458Z,5.21
2022-11-25T23:56:06.108Z,5.20
2022-11-25T23:58:32.617Z,5.13
